Collamer, Indiana
Current Conditions -  °F | °C
As of 2:15 AM on Saturday 20 Dec 2014 (Local Time) from KHHG Reporting Station
Haze Haze  
Wind Chill: 27°   Ceiling: 3400
Heat Index: 27°   Visibility: 4mi
Dew Point: 26°   Wind: 0mph
Humidity: 98%   Direction: NA
Pressure: 30.27"   Gusts: NA
Location:  41.056°N, 85.6112°W
Report Text: KHHG 200715Z AUTO 00000KT 4SM BR OVC034 M03/M03 A3027 RMK AO2 T10281031
Loading
Personal Weather Stations






























Interactive Weather Map New forecast layout! Learn more

10-Day Weather Forecast

Advertisements
Track Severe Weather on mobile